KESC/ESC METAR and TAF weather

Enter ICAO airport designator
Station Type Date Time Source
KESC METAR 2019/05/20 09:56 UTC NOAA

KESC 200956Z AUTO 34011G18KT 10SM -RA OVC012 04/03 A2982 RMK AO2 SLP105 P0006 T00440033


Station Type Date Time Source
KESC Decoded METAR 2019/05/20 09:56 UTC NOAA

Escanaba, MI, United States (KESC) 45-45N 087-02W 187M
May 20, 2019 - 05:56 AM EDT / 2019.05.20 0956 UTC
Wind: from the NNW (340 degrees) at 13 MPH (11 KT) gusting to 21 MPH (18 KT):0
Visibility: 10 mile(s):0
Sky conditions: overcast
Weather: light rain
Precipitation last hour: 0.06 inches
Temperature: 39.9 F (4.4 C)
Dew Point: 37.9 F (3.3 C)
Relative Humidity: 92%
Pressure (altimeter): 29.82 in. Hg (1009 hPa)
ob: KESC 200956Z AUTO 34011G18KT 10SM -RA OVC012 04/03 A2982 RMK AO2 SLP105 P0006 T00440033
cycle: 10

Station Type Date Time Source
KESC TAF UTC NOAA

Error!

Example: see airport list